EFKT

Kittilä Airport

Airport
ICAO code
EFKT
IATA Code
KTT
Summary
ICAO Region
EUR
ICAO Territory
Location

Kittilä, Lapland

Serving
Kittilä
Elevation
644 ft
Coordinates
67° 41' 42" N , 24° 51' 3" E
KCC
Dfc
Airport CFIT
Altimeter Temperature Error Correction
Airport GND
Aircraft Ground De/Anti Icing
Airport RE
Landing on Contaminated Runways
Metar
Observation
EFKT 170920Z AUTO 18016KT CAVOK 24/17 Q1008
Station
Kittila
Date/Time
2022-08-17 09:20:00
Wind direction
180°
Wind speed
16 kts
Lowest cloud amount
clouds and visibility OK
Temperature
24°C
Dew point
17°C
Humidity
64%
QNH
1008 hPa
Weather condition
n/a

Description

Largely domestic but also international airport located in Kittilä, Finland.

Climatology

Subarctic climate (Köppen climate classification Dfc) - long, usually very cold winters, and short, cool to mild summers.

Runways

Designator Length Width Surface Rops
16/34 2500 45 ASP Yes/Yes

Airport map

Aerial View

SKYbrary Partners:

Safety knowledge contributed by: